Data for 10/02/2014

Time Sea-Level Adjusted Pressure Absolute Pressure Temperature Relative Humidity Dew Point Precipitation   
(mb) (inHg) (mb) (inHg) (C) (F) (%) (C) (F) (mm) (in)
00:05 1021 30.15 850 25.1 -1.1 30 87 -3 26.6 0 0
00:10 1021 30.15 850 25.1 -1.2 29.9 87 -3.1 26.5 0 0
00:15 1021 30.15 850 25.1 -1.3 29.7 88 -3 26.6 0 0
00:20 1021 30.15 850 25.1 -1.3 29.7 89 -2.9 26.8 0 0
00:25 1021 30.15 850 25.1 -1.2 29.8 87 -3.1 26.4 0 0
00:30 1021 30.15 850 25.1 -1.3 29.6 88 -3.1 26.5 0 0
00:35 1021 30.15 850 25.1 -1.6 29.2 90 -3 26.6 0 0
00:40 1021 30.15 850 25.1 -1.5 29.2 89 -3.1 26.4 0 0
00:45 1021 30.15 850 25.1 -1.6 29.1 90 -3.1 26.5 0 0
00:50 1021 30.15 850 25.1 -1.7 29 90 -3.1 26.4 0 0
00:55 1021 30.15 850 25.1 -1.6 29.1 91 -2.9 26.8 0 0
01:00 1021 30.15 850 25.1 -0.9 30.3 87 -2.8 27 0 0
01:05 1021 30.15 850 25.1 -0.6 31 84 -3 26.6 0 0
01:10 1021 30.15 850 25.1 -0.1 31.8 83 -2.7 27.2 0 0
01:15 1021 30.15 850 25.1 -0.1 31.9 82 -2.7 27.1 0 0
01:20 1021 30.15 850 25.1 -0.4 31.2 84 -2.7 27.1 0 0
01:25 1021 30.15 850 25.1 -0.7 30.8 86 -2.7 27.1 0 0
01:30 1021 30.15 850 25.1 -0.8 30.6 86 -2.8 26.9 0 0
01:35 1021 30.15 850 25.1 -0.7 30.7 86 -2.8 27 0 0
01:40 1021 30.15 850 25.1 -0.9 30.4 87 -2.7 27.1 0 0
01:45 1021 30.15 850 25.1 -1 30.2 88 -2.8 27 0 0
01:50 1021 30.15 850 25.1 -0.9 30.5 86 -2.9 26.7 0 0
01:55 1021 30.15 850 25.1 -0.7 30.7 86 -2.8 26.9 0 0
02:00 1021 30.15 850 25.1 -0.9 30.3 87 -2.8 26.9 0 0
02:05 1021 30.15 850 25.1 -1.1 30 88 -2.8 27 0 0
02:10 1021 30.15 850 25.1 -1.2 29.8 89 -2.8 26.9 0 0
02:15 1021 30.15 850 25.1 -1.2 29.9 88 -2.8 26.9 0 0
02:20 1021 30.15 850 25.1 -1.2 29.9 89 -2.8 27 0 0
02:25 1021 30.15 850 25.1 -1.2 29.8 89 -2.7 27.1 0 0
02:30 1021 30.15 850 25.1 -1 30.1 89 -2.6 27.4 0 0
02:35 1021 30.15 850 25.1 -0.9 30.3 90 -2.3 27.8 0 0
02:40 1021 30.15 850 25.1 -0.7 30.7 90 -2.3 27.9 0 0
02:45 1021 30.15 850 25.1 -0.5 31.1 88 -2.2 28 0 0
02:50 1021 30.15 850 25.1 -0.1 31.8 84 -2.5 27.5 0 0
02:55 1021 30.15 850 25.1 0.2 32.3 85 -2 28.4 0 0
03:00 1021 30.15 850 25.1 0.2 32.3 87 -1.8 28.8 0 0
03:05 1021 30.15 850 25.1 0.3 32.5 87 -1.6 29.2 0 0
03:10 1021 30.15 850 25.1 0.5 32.9 85 -1.7 29 0 0
03:15 1021 30.15 850 25.1 0.6 33.2 85 -1.5 29.3 0 0
03:20 1021 30.15 850 25.1 0.6 33.1 85 -1.6 29.1 0 0
03:25 1021 30.15 850 25.1 0.6 33.1 87 -1.3 29.6 0 0
03:30 1021 30.15 850 25.1 0.6 33 88 -1.3 29.7 0 0
03:35 1021 30.15 850 25.1 0.7 33.3 87 -1.2 29.8 0 0
03:40 1021 30.15 850 25.1 0.7 33.3 88 -1.1 30 0 0
03:45 1021 30.15 850 25.1 0.7 33.3 88 -1.1 30 0 0
03:50 1021 30.15 850 25.1 0.7 33.3 88 -1.1 30.1 0 0
03:55 1021 30.15 850 25.1 0.8 33.4 88 -1 30.1 0 0
04:00 1021 30.15 850 25.1 0.8 33.5 85 -1.4 29.4 0 0
04:05 1021 30.15 850 25.1 1.1 34 83 -1.5 29.4 0 0
04:10 1021 30.15 850 25.1 1.4 34.6 81 -1.6 29.2 0 0
04:15 1021 30.15 850 25.1 1.5 34.7 83 -1.1 30 0 0
04:20 1021 30.15 850 25.1 1.2 34.1 85 -1.1 29.9 0 0
04:25 1021 30.15 850 25.1 1 33.8 86 -1.1 30 0 0
04:30 1021 30.15 850 25.1 0.9 33.7 86 -1.2 29.8 0 0
04:35 1021 30.15 850 25.1 1.1 34 83 -1.4 29.4 0 0
04:40 1021 30.15 850 25.1 1.4 34.5 81 -1.5 29.3 0 0
04:45 1021 30.15 850 25.1 1.8 35.2 79 -1.4 29.4 0 0
04:50 1021 30.15 850 25.1 1.8 35.3 81 -1.1 29.9 0 0
04:55 1021 30.15 850 25.1 1.8 35.2 80 -1.3 29.6 0 0
05:00 1021 30.15 850 25.1 2 35.6 80 -1.2 29.9 0 0
05:05 1021 30.15 850 25.1 2 35.6 81 -0.9 30.4 0 0
05:10 1021 30.15 850 25.1 1.7 35.1 83 -0.8 30.5 0 0
05:15 1021 30.15 850 25.1 1.4 34.5 84 -1 30.1 0 0
05:20 1021 30.15 850 25.1 1.2 34.2 83 -1.3 29.6 0 0
05:25 1021 30.15 850 25.1 1.1 34 84 -1.2 29.8 0 0
05:30 1021 30.15 850 25.1 1.1 33.9 83 -1.5 29.3 0 0
05:35 1020 30.12 850 25.1 0.8 33.4 85 -1.4 29.5 0 0
05:40 1020 30.12 850 25.1 0.6 33.1 85 -1.6 29.1 0 0
05:45 1020 30.12 850 25.1 0.2 32.4 86 -1.8 28.7 0 0
05:50 1020 30.12 850 25.1 -0 31.9 87 -2 28.4 0 0
05:55 1020 30.12 850 25.1 -0 32 86 -2.1 28.2 0 0
06:00 1020 30.12 850 25.1 -0.1 31.8 86 -2.2 28.1 0 0
06:05 1021 30.15 850 25.1 -0 31.9 85 -2.2 28 0 0
06:10 1020 30.12 850 25.1 -0.2 31.7 86 -2.2 28 0 0
06:15 1020 30.12 850 25.1 -0.4 31.4 87 -2.3 27.9 0 0
06:20 1020 30.12 850 25.1 -0.4 31.3 86 -2.5 27.6 0 0
06:25 1020 30.12 850 25.1 -0.5 31.1 86 -2.5 27.5 0 0
06:30 1021 30.15 850 25.1 -0.5 31.1 86 -2.5 27.4 0 0
06:35 1020 30.12 850 25.1 -0.7 30.8 87 -2.6 27.4 0 0
06:40 1021 30.15 850 25.1 -0.8 30.6 88 -2.5 27.5 0 0
06:45 1020 30.12 850 25.1 -0.8 30.6 90 -2.3 27.9 0 0
06:50 1020 30.12 850 25.1 -0.2 31.6 88 -2 28.4 0 0
06:55 1020 30.12 850 25.1 0.1 32.1 84 -2.3 27.9 0 0
07:00 1020 30.12 850 25.1 -0.6 30.9 87 -2.6 27.3 0 0
07:05 1020 30.12 850 25.1 -0.9 30.5 87 -2.7 27.1 0 0
07:10 1020 30.12 850 25.1 -0.9 30.3 86 -2.9 26.7 0 0
07:15 1020 30.12 850 25.1 -1.4 29.4 89 -3 26.6 0 0
07:20 1020 30.12 850 25.1 -1.6 29.1 90 -3 26.5 0 0
07:25 1020 30.12 850 25.1 -1.4 29.5 90 -2.9 26.9 0 0
07:30 1020 30.12 850 25.1 -1.3 29.6 90 -2.8 26.9 0 0
07:35 1020 30.12 850 25.1 -1.1 30 86 -3.1 26.3 0 0
07:40 1020 30.12 850 25.1 -0.9 30.4 87 -2.8 27 0 0
07:45 1021 30.15 850 25.1 -0.9 30.3 87 -2.8 27 0 0
07:50 1021 30.15 850 25.1 -0.9 30.3 88 -2.7 27.1 0 0
07:55 1021 30.15 850 25.1 -1 30.3 88 -2.7 27.1 0 0
08:00 1021 30.15 850 25.1 -0.8 30.5 87 -2.8 27 0 0
08:05 1021 30.15 850 25.1 -0.8 30.6 87 -2.6 27.3 0 0
08:10 1021 30.15 850 25.1 -0.7 30.7 88 -2.5 27.5 0 0
08:15 1021 30.15 850 25.1 -0.6 30.9 89 -2.2 28 0 0
08:20 1021 30.15 850 25.1 0 32 87 -2 28.4 0 0
08:25 1021 30.15 850 25.1 1 33.7 82 -1.7 28.9 0 0
08:30 1021 30.15 850 25.1 1.9 35.4 80 -1.2 29.9 0 0
08:35 1021 30.15 850 25.1 2.6 36.7 78 -0.7 30.7 0 0
08:40 1021 30.15 850 25.1 3.7 38.6 67 -1.8 28.7 0 0
08:45 1021 30.15 850 25.1 4.5 40.2 67 -1.1 30.1 0 0
08:50 1021 30.15 851 25.13 4.9 40.8 63 -1.4 29.4 0 0
08:55 1021 30.15 851 25.13 5 41.1 62 -1.6 29.1 0 0
09:00 1021 30.15 851 25.13 5.2 41.3 66 -0.7 30.8 0 0
09:05 1022 30.18 851 25.13 5.4 41.8 68 -0 32 0 0
09:10 1022 30.18 851 25.13 5.8 42.5 63 -0.6 30.9 0 0
09:15 1022 30.18 851 25.13 6.3 43.4 59 -1 30.2 0 0
09:20 1022 30.18 851 25.13 6.6 43.9 60 -0.5 31.1 0 0
09:25 1022 30.18 851 25.13 6.7 44.1 58 -1 30.1 0 0
09:30 1022 30.18 851 25.13 6.8 44.2 63 0.3 32.6 0 0
09:35 1022 30.18 851 25.13 6.9 44.5 58 -0.7 30.7 0 0
09:40 1022 30.18 851 25.13 6.9 44.4 59 -0.5 31.2 0 0
09:45 1022 30.18 851 25.13 7 44.5 60 -0.3 31.4 0 0
09:50 1022 30.18 851 25.13 7.2 44.9 62 0.4 32.7 0 0
09:55 1022 30.18 851 25.13 7.5 45.4 59 -0 31.9 0 0
10:00 1022 30.18 851 25.13 7.8 46 56 -0.3 31.4 0 0
10:05 1022 30.18 851 25.13 8 46.4 54 -0.8 30.6 0 0
10:10 1022 30.18 851 25.13 8.8 47.9 50 -1.1 30 0 0
10:15 1022 30.18 851 25.13 9.2 48.6 46 -1.9 28.6 0 0
10:20 1022 30.18 851 25.13 10.1 50.1 43 -2 28.3 0 0
10:25 1022 30.18 851 25.13 10 50.1 45 -1.4 29.5 0 0
10:30 1022 30.18 851 25.13 9.8 49.6 45 -1.7 29 0 0
10:35 1022 30.18 851 25.13 9.9 49.8 41 -2.8 26.9 0 0
10:40 1022 30.18 851 25.13 9.4 48.8 43 -2.5 27.6 0 0
10:45 1022 30.18 851 25.13 9.1 48.5 46 -1.9 28.6 0 0
10:50 1022 30.18 851 25.13 9.5 49.2 47 -1.1 29.9 0 0
10:55 1022 30.18 851 25.13 9.4 49 43 -2.5 27.6 0 0
11:00 1022 30.18 851 25.13 9.3 48.8 46 -1.7 29 0 0
11:05 1022 30.18 851 25.13 9.5 49.2 48 -0.9 30.5 0 0
11:10 1022 30.18 851 25.13 9.5 49.2 43 -2.3 27.8 0 0
11:15 1022 30.18 851 25.13 9.6 49.3 40 -3.4 25.9 0 0
11:20 1022 30.18 851 25.13 10.3 50.6 45 -1.1 30 0 0
11:25 1022 30.18 851 25.13 10.8 51.5 39 -2.7 27.2 0 0
11:30 1022 30.18 851 25.13 11.3 52.3 43 -0.8 30.6 0 0
11:35 1022 30.18 851 25.13 11.6 52.9 36 -3.1 26.5 0 0
11:40 1022 30.18 851 25.13 11.4 52.4 36 -3.2 26.3 0 0
11:45 1022 30.18 851 25.13 11.6 53 36 -2.9 26.8 0 0
11:50 1022 30.18 851 25.13 11.6 52.8 37 -2.7 27.2 .2 0.008
11:55 1022 30.18 851 25.13 11.6 52.9 35 -3.2 26.3 0 0
12:00 1022 30.18 851 25.13 11.5 52.8 34 -3.6 25.5 0 0
12:05 1022 30.18 851 25.13 11.5 52.7 36 -3.2 26.3 0 0
12:10 1022 30.18 851 25.13 11.4 52.5 33 -4.1 24.6 0 0
12:15 1022 30.18 851 25.13 11.4 52.5 31 -4.9 23.2 0 0
12:20 1022 30.18 851 25.13 11.3 52.3 37 -2.9 26.8 0 0
12:25 1022 30.18 851 25.13 10.7 51.2 40 -2.4 27.7 0 0
12:30 1022 30.18 851 25.13 10.5 50.9 47 -0.3 31.4 0 0
12:35 1022 30.18 851 25.13 10.7 51.2 47 -0 32 0 0
12:40 1022 30.18 852 25.16 10.2 50.4 50 0.3 32.6 0 0
12:45 1022 30.18 852 25.16 10 50 48 -0.4 31.3 0 0
12:50 1022 30.18 852 25.16 9.4 48.9 50 -0.3 31.4 0 0
12:55 1022 30.18 852 25.16 9.2 48.6 53 0.1 32.2 0 0
13:00 1023 30.21 852 25.16 9.1 48.4 56 0.7 33.3 0 0
13:05 1023 30.21 852 25.16 8.4 47.1 55 0 32 0 0
13:10 1023 30.21 852 25.16 8 46.4 57 0 32 0 0
13:15 1023 30.21 852 25.16 7.5 45.5 56 -0.6 30.9 0 0
13:20 1023 30.21 852 25.16 7.2 44.9 58 -0.6 30.9 0 0
13:25 1023 30.21 852 25.16 7.1 44.7 56 -1 30.2 0 0
13:30 1023 30.21 852 25.16 7.2 45 60 0.1 32.1 0 0
13:35 1023 30.21 852 25.16 7.5 45.6 56 -0.5 31 0 0
13:40 1023 30.21 852 25.16 7.2 44.9 60 -0.2 31.7 0 0
13:45 1023 30.21 853 25.19 7 44.7 56 -1.1 30 0 0
13:50 1023 30.21 853 25.19 7 44.7 59 -0.4 31.3 0 0
13:55 1023 30.21 853 25.19 6.9 44.5 58 -0.7 30.7 0 0
14:00 1024 30.24 853 25.19 7 44.6 55 -1.4 29.4 0 0
14:05 1024 30.24 853 25.19 6.8 44.2 57 -1.1 30.1 0 0
14:10 1024 30.24 853 25.19 6.6 43.9 57 -1.3 29.6 0 0
14:15 1024 30.24 853 25.19 6.8 44.3 58 -0.9 30.3 0 0
14:20 1024 30.24 853 25.19 6.7 44.1 57 -1.2 29.9 0 0
14:25 1024 30.24 853 25.19 6.5 43.7 56 -1.6 29.2 0 0
14:30 1024 30.24 854 25.22 6.2 43.2 57 -1.7 28.9 0 0
14:35 1024 30.24 854 25.22 6.1 43.1 56 -1.9 28.6 0 0
14:40 1024 30.24 854 25.22 6.2 43.1 55 -2.2 28.1 0 0
14:45 1025 30.27 854 25.22 6.2 43.1 59 -1.3 29.6 0 0
14:50 1025 30.27 854 25.22 6.2 43.2 57 -1.7 28.9 0 0
14:55 1025 30.27 854 25.22 6.2 43.1 56 -1.9 28.5 0 0
15:00 1025 30.27 854 25.22 6.2 43.1 58 -1.5 29.3 0 0
15:05 1025 30.27 854 25.22 6.7 44 56 -1.4 29.5 0 0
15:10 1025 30.27 854 25.22 6.8 44.3 51 -2.6 27.2 0 0
15:15 1025 30.27 854 25.22 6.7 44.1 57 -1.1 29.9 0 0
15:20 1025 30.27 854 25.22 6.9 44.4 57 -1.1 30 0 0
15:25 1025 30.27 854 25.22 6.9 44.5 51 -2.5 27.6 0 0
15:30 1025 30.27 854 25.22 6.9 44.4 52 -2.2 28.1 0 0
15:35 1025 30.27 854 25.22 6.9 44.5 53 -2 28.5 0 0
15:40 1025 30.27 854 25.22 6.9 44.5 56 -1.2 29.9 0 0
15:45 1025 30.27 854 25.22 6.8 44.3 52 -2.4 27.8 0 0
15:50 1025 30.27 854 25.22 7 44.6 52 -2.2 28.1 0 0
15:55 1025 30.27 854 25.22 6.9 44.4 56 -1.3 29.6 0 0
16:00 1025 30.27 854 25.22 6.6 43.8 56 -1.5 29.3 0 0
16:05 1025 30.27 855 25.25 6.3 43.3 55 -2.1 28.1 0 0
16:10 1025 30.27 855 25.25 6.3 43.4 57 -1.6 29.1 0 0
16:15 1025 30.27 855 25.25 6.5 43.7 56 -1.7 28.9 0 0
16:20 1025 30.27 855 25.25 6.3 43.3 56 -1.9 28.5 0 0
16:25 1026 30.3 855 25.25 6.1 42.9 58 -1.5 29.3 0 0
16:30 1026 30.3 855 25.25 5.9 42.7 62 -0.8 30.5 0 0
16:35 1026 30.3 855 25.25 5.8 42.5 64 -0.4 31.2 0 0
16:40 1026 30.3 855 25.25 5.6 42.1 61 -1.3 29.7 0 0
16:45 1026 30.3 855 25.25 5.7 42.3 62 -1.1 30.1 0 0
16:50 1026 30.3 855 25.25 6.4 43.5 55 -2 28.4 0 0
16:55 1026 30.3 855 25.25 6.8 44.2 56 -1.4 29.5 0 0
17:00 1026 30.3 855 25.25 6.8 44.2 56 -1.5 29.4 0 0
17:05 1026 30.3 855 25.25 6.7 44.1 54 -1.8 28.7 0 0
17:10 1026 30.3 855 25.25 6.2 43.1 55 -2.3 27.9 0 0
17:15 1026 30.3 855 25.25 6 42.9 54 -2.5 27.5 0 0
17:20 1026 30.3 855 25.25 5.7 42.3 55 -2.7 27.2 0 0
17:25 1026 30.3 855 25.25 5.5 41.9 57 -2.2 28 0 0
17:30 1026 30.3 856 25.28 5.4 41.7 57 -2.5 27.6 0 0
17:35 1027 30.33 856 25.28 5.2 41.3 65 -0.9 30.4 0 0
17:40 1027 30.33 856 25.28 4.7 40.5 66 -1.1 30.1 0 0
17:45 1027 30.33 856 25.28 4.4 39.9 66 -1.3 29.6 0 0
17:50 1027 30.33 856 25.28 4.1 39.4 63 -2.3 27.8 0 0
17:55 1027 30.33 856 25.28 4.2 39.5 59 -3.2 26.3 0 0
18:00 1027 30.33 856 25.28 4.2 39.6 57 -3.4 25.8 0 0
18:05 1027 30.33 856 25.28 4.1 39.4 57 -3.7 25.4 0 0
18:10 1027 30.33 856 25.28 4 39.2 58 -3.4 25.8 0 0
18:15 1027 30.33 857 25.31 4.1 39.3 56 -4 24.8 0 0
18:20 1027 30.33 857 25.31 4.2 39.6 54 -4.2 24.4 0 0
18:25 1028 30.36 857 25.31 4 39.2 56 -3.9 25 0 0
18:30 1028 30.36 857 25.31 3.7 38.7 57 -4 24.9 0 0
18:35 1028 30.36 857 25.31 3.5 38.4 56 -4.4 24.2 0 0
18:40 1028 30.36 857 25.31 3.4 38.1 56 -4.5 23.9 0 0
18:45 1028 30.36 857 25.31 3.3 37.9 56 -4.8 23.4 0 0
18:50 1028 30.36 857 25.31 3.1 37.5 56 -4.9 23.2 0 0
18:55 1028 30.36 857 25.31 2.8 37.1 56 -5 23 0 0
19:00 1028 30.36 858 25.34 2.7 36.8 58 -4.7 23.5 0 0
19:05 1028 30.36 858 25.34 2.5 36.4 57 -5.2 22.6 0 0
19:10 1029 30.39 858 25.34 2.4 36.3 58 -5.1 22.8 0 0
19:15 1029 30.39 858 25.34 2.3 36.1 59 -4.9 23.2 0 0
19:20 1029 30.39 858 25.34 2.2 35.9 60 -4.7 23.6 0 0
19:25 1029 30.39 858 25.34 2 35.5 62 -4.5 24 0 0
19:30 1029 30.39 858 25.34 1.7 35.1 63 -4.6 23.7 0 0
19:35 1029 30.39 858 25.34 1.6 35 63 -4.8 23.4 0 0
19:40 1029 30.39 858 25.34 1.6 34.9 63 -4.7 23.6 0 0
19:45 1029 30.39 859 25.37 1.6 34.9 60 -5.3 22.4 0 0
19:50 1029 30.39 859 25.37 1.6 34.9 61 -5.2 22.6 0 0
19:55 1030 30.42 859 25.37 1.6 34.8 59 -5.5 22.1 0 0
20:00 1030 30.42 859 25.37 1.5 34.7 59 -5.7 21.8 0 0
20:05 1030 30.42 859 25.37 1.4 34.5 64 -4.7 23.6 0 0
20:10 1030 30.42 859 25.37 1.1 34 61 -5.6 21.9 0 0
20:15 1030 30.42 859 25.37 1 33.8 61 -5.6 21.9 0 0
20:20 1030 30.42 859 25.37 0.7 33.3 68 -4.5 23.8 0 0
20:25 1030 30.42 859 25.37 0.4 32.7 69 -4.8 23.4 0 0
20:30 1030 30.42 859 25.37 0.2 32.3 69 -4.9 23.2 0 0
20:35 1030 30.42 859 25.37 -0.1 31.9 74 -4.2 24.5 0 0
20:40 1030 30.42 859 25.37 -0.5 31.1 76 -4.1 24.5 0 0
20:45 1030 30.42 859 25.37 -0.6 30.9 76 -4.4 24.1 0 0
20:50 1030 30.42 859 25.37 -0.8 30.6 76 -4.5 23.9 0 0
20:55 1030 30.42 860 25.4 -1 30.2 75 -4.8 23.4 0 0
21:00 1030 30.42 860 25.4 -1.1 30.1 74 -5.1 22.9 0 0
21:05 1030 30.42 860 25.4 -1.1 30 76 -4.7 23.5 0 0
21:10 1031 30.45 860 25.4 -1.2 29.8 76 -5 23.1 0 0
21:15 1031 30.45 860 25.4 -1.2 29.8 74 -5.3 22.5 0 0
21:20 1031 30.45 860 25.4 -1.1 30 76 -4.9 23.2 0 0
21:25 1031 30.45 860 25.4 -1.3 29.7 77 -4.9 23.2 0 0
21:30 1031 30.45 860 25.4 -1.4 29.5 77 -4.9 23.2 0 0
21:35 1031 30.45 860 25.4 -1.1 29.9 77 -4.8 23.4 0 0
21:40 1031 30.45 860 25.4 -1.2 29.8 80 -4.2 24.5 0 0
21:45 1031 30.45 860 25.4 -1.4 29.4 81 -4.3 24.3 0 0
21:50 1031 30.45 860 25.4 -1.5 29.3 83 -4 24.9 0 0
21:55 1031 30.45 860 25.4 -1.8 28.8 84 -4.1 24.7 0 0
22:00 1031 30.45 860 25.4 -1.8 28.7 84 -4.2 24.4 0 0
22:05 1031 30.45 860 25.4 -1.7 29 82 -4.3 24.3 0 0
22:10 1031 30.45 860 25.4 -1.5 29.3 81 -4.3 24.3 0 0
22:15 1031 30.45 860 25.4 -1.6 29.2 83 -4.2 24.5 0 0
22:20 1031 30.45 860 25.4 -1.9 28.6 84 -4.2 24.4 0 0
22:25 1031 30.45 861 25.43 -2 28.4 86 -4 24.8 0 0
22:30 1031 30.45 860 25.4 -2 28.4 87 -3.8 25.1 0 0
22:35 1031 30.45 861 25.43 -2.1 28.2 87 -3.9 24.9 0 0
22:40 1031 30.45 860 25.4 -2.2 28.1 87 -4 24.8 0 0
22:45 1031 30.45 860 25.4 -2.1 28.2 86 -4.1 24.6 0 0
22:50 1031 30.45 861 25.43 -2 28.4 86 -4.1 24.7 0 0
22:55 1031 30.45 861 25.43 -1.9 28.5 86 -4 24.8 0 0
23:00 1031 30.45 861 25.43 -1.8 28.7 87 -3.7 25.3 0 0
23:05 1031 30.45 861 25.43 -1.8 28.7 86 -3.9 25 0 0
23:10 1031 30.45 861 25.43 -1.8 28.8 86 -3.9 25.1 0 0
23:15 1031 30.45 861 25.43 -1.9 28.6 87 -3.8 25.1 0 0
23:20 1031 30.45 861 25.43 -1.9 28.6 87 -3.7 25.3 0 0
23:25 1031 30.45 861 25.43 -1.9 28.6 86 -3.9 25 0 0
23:30 1031 30.45 861 25.43 -1.8 28.7 84 -4.2 24.4 0 0
23:35 1031 30.45 860 25.4 -2 28.4 84 -4.4 24 0 0
23:40 1031 30.45 860 25.4 -2.1 28.2 82 -4.8 23.4 0 0
23:45 1031 30.45 861 25.43 -2 28.4 82 -4.7 23.6 0 0
23:50 1031 30.45 861 25.43 -2.1 28.2 83 -4.7 23.6 0 0
23:55 1031 30.45 861 25.43 -2.4 27.8 83 -4.8 23.3 0 0
24:00 1031 30.45 861 25.43 -2.5 27.5 86 -4.5 24 0 0